Time;durP1;ratioP1;P1;durP2;ratioP2;P2;SDS_P1;SDS_P2;PMS_P1;PMS_P2;Temp;Humidity;BMP_temperature;BMP_pressure;BME280_temperature;BME280_humidity;BME280_pressure;Samples;Min_cycle;Max_cycle;Signal;HPM_P1;HPM_P2
2022/02/10 00:15:40;;;;;;;;;63.75;49.50;;;;;9.51;73.94;102028.72;5050292;28;45718;-73
2022/02/10 00:20:45;;;;;;;;;61.50;49.75;;;;;9.59;74.10;102022.41;5051956;28;45301;-73
2022/02/10 00:23:33;;;;;;;;;62.00;47.50;;;;;9.62;73.75;102022.38;5051217;28;45424;-73
2022/02/10 00:36:41;;;;;;;;;56.25;47.00;;;;;9.72;73.78;102014.31;5051795;28;45711;-73
2022/02/10 00:41:50;;;;;;;;;56.25;41.75;;;;;9.74;73.41;102013.38;5055861;28;45757;-73
2022/02/10 00:44:16;;;;;;;;;58.50;44.50;;;;;9.75;73.76;102017.75;5054840;28;45556;-73
2022/02/10 00:46:42;;;;;;;;;49.50;43.00;;;;;9.78;73.81;102027.34;5057309;28;46152;-73
2022/02/10 00:49:08;;;;;;;;;55.75;44.75;;;;;9.78;73.63;102025.56;5055150;28;45702;-73
2022/02/10 00:51:34;;;;;;;;;46.75;38.50;;;;;9.79;73.90;102022.03;5055337;28;45441;-73
2022/02/10 00:53:59;;;;;;;;;50.75;38.25;;;;;9.81;73.88;102022.00;5055447;28;45397;-73
2022/02/10 00:56:25;;;;;;;;;57.25;40.00;;;;;9.83;74.00;102028.13;5054004;28;45956;-73
2022/02/10 00:58:59;;;;;;;;;49.25;38.75;;;;;9.84;74.44;102027.22;5056332;28;45443;-73
2022/02/10 01:12:25;;;;;;;;;38.25;31.25;;;;;9.92;74.37;102034.06;5055142;28;45286;-73
2022/02/10 01:30:29;;;;;;;;;38.25;31.25;;;;;10.02;74.70;102034.72;5054878;28;45491;-73
2022/02/10 01:32:58;;;;;;;;;34.00;29.75;;;;;10.03;74.88;102043.47;5054602;28;45384;-73
2022/02/10 01:35:25;;;;;;;;;42.00;32.00;;;;;10.05;74.76;102047.78;5054252;28;45555;-73
2022/02/10 01:37:51;;;;;;;;;46.50;35.50;;;;;10.07;74.73;102047.75;5055866;28;45948;-73
2022/02/10 02:04:43;;;;;;;;;34.00;27.50;;;;;9.97;74.84;102041.84;5055806;28;45331;-73
2022/02/10 02:07:09;;;;;;;;;34.75;28.00;;;;;9.92;74.90;102041.94;5053991;28;45398;-73
2022/02/10 02:09:35;;;;;;;;;33.00;29.00;;;;;9.87;75.18;102035.91;5054039;28;45511;-72
2022/02/10 02:12:06;;;;;;;;;37.00;29.75;;;;;9.84;75.46;102045.59;5053468;28;45530;-73
2022/02/10 02:14:31;;;;;;;;;38.25;31.75;;;;;9.80;74.84;102039.53;5053885;28;45440;-72
2022/02/10 02:17:03;;;;;;;;;36.25;34.00;;;;;9.80;75.17;102049.16;5055268;28;45455;-72
2022/02/10 02:19:29;;;;;;;;;39.25;33.75;;;;;9.79;75.43;102047.44;5055340;28;46335;-73
2022/02/10 02:21:59;;;;;;;;;38.00;32.25;;;;;9.79;75.26;102040.41;5053889;28;45958;-73
2022/02/10 02:24:24;;;;;;;;;46.00;36.75;;;;;9.80;75.65;102046.53;5053763;28;45336;-73
2022/02/10 02:26:52;;;;;;;;;43.25;30.25;;;;;9.80;75.37;102052.66;5052019;28;45649;-72
2022/02/10 02:29:26;;;;;;;;;49.00;39.25;;;;;9.81;75.56;102053.50;5053567;28;46104;-72
2022/02/10 02:31:58;;;;;;;;;43.75;34.50;;;;;9.80;75.45;102049.16;5051680;28;45323;-73
2022/02/10 03:07:16;;;;;;;;;37.50;30.00;;;;;9.58;76.01;102035.56;4996853;28;46090;-73
2022/02/10 03:09:53;;;;;;;;;43.50;31.00;;;;;9.55;75.67;102033.88;4996161;28;45427;-73
2022/02/10 03:12:19;;;;;;;;;40.25;32.00;;;;;9.53;76.13;102032.16;5004141;28;45527;-73
2022/02/10 03:14:48;;;;;;;;;30.25;26.25;;;;;9.51;76.29;102033.97;5032243;28;45479;-73
2022/02/10 03:17:40;;;;;;;;;35.50;27.75;;;;;9.49;75.94;102046.22;5032621;28;45353;-73
2022/02/10 03:20:39;;;;;;;;;27.50;24.00;;;;;9.46;76.31;102047.16;5030246;28;45472;-72
2022/02/10 04:14:53;;;;;;;;;31.50;29.00;;;;;9.18;77.05;102072.09;4897063;28;46383;-73
2022/02/10 04:20:18;;;;;;;;;35.33;25.33;;;;;9.23;76.54;102081.63;4898916;29;45529;-73
2022/02/10 04:59:44;;;;;;;;;32.25;26.00;;;;;9.10;76.67;102095.84;5055480;28;46208;-73
2022/02/10 05:05:29;;;;;;;;;37.00;30.33;;;;;9.09;76.46;102096.72;5056989;28;45811;-73
2022/02/10 05:18:36;;;;;;;;;30.00;26.50;;;;;9.06;76.43;102094.13;4897097;29;45584;-73
2022/02/10 05:32:28;;;;;;;;;40.25;29.00;;;;;9.05;75.74;102097.66;4894927;29;45888;-73
2022/02/10 05:34:59;;;;;;;;;34.00;31.75;;;;;9.06;76.15;102095.00;4897233;29;45292;-73
2022/02/10 05:37:29;;;;;;;;;31.75;24.75;;;;;9.06;76.00;102094.13;4897453;29;45395;-73
2022/02/10 05:39:57;;;;;;;;;36.75;25.75;;;;;9.04;75.68;102099.41;4897030;29;45635;-73
2022/02/10 05:43:10;;;;;;;;;31.25;24.75;;;;;9.02;75.87;102093.31;4897205;28;45965;-73
2022/02/10 05:58:03;;;;;;;;;33.75;26.50;;;;;8.97;76.21;102121.34;5051018;28;45403;-74
2022/02/10 06:52:15;;;;;;;;;33.00;17.67;;;;;9.08;75.13;102144.78;4998870;28;45430;-73
2022/02/10 06:54:52;;;;;;;;;31.50;25.25;;;;;9.05;75.52;102147.47;4997174;28;45593;-74
2022/02/10 06:57:49;;;;;;;;;27.75;25.50;;;;;9.04;75.58;102148.38;4996461;28;45390;-74
2022/02/10 07:03:26;;;;;;;;;31.00;21.25;;;;;9.00;75.34;102151.91;4980916;28;45458;-73
2022/02/10 07:08:25;;;;;;;;;28.00;24.00;;;;;8.94;75.44;102163.38;5008318;28;45614;-73
2022/02/10 07:13:57;;;;;;;;;29.50;23.50;;;;;8.88;75.62;102160.81;4997124;28;45471;-73
2022/02/10 08:26:22;;;;;;;;;38.00;25.50;;;;;9.04;75.73;102206.94;4999282;28;45458;-70
2022/02/10 08:56:10;;;;;;;;;41.25;34.00;;;;;9.75;74.48;102237.41;5055393;28;45375;-71
2022/02/10 09:12:14;;;;;;;;;41.25;29.25;;;;;10.03;74.01;102233.44;5055423;28;45514;-73
2022/02/10 09:14:32;;;;;;;;;32.75;28.50;;;;;10.14;73.73;102234.13;5042829;28;45416;-72
2022/02/10 09:19:53;;;;;;;;;30.00;26.25;;;;;10.33;73.30;102228.56;5055945;28;45315;-71
2022/02/10 10:02:56;;;;;;;;;38.25;28.75;;;;;11.27;69.96;102261.78;5052381;28;45551;-71
2022/02/10 10:10:43;;;;;;;;;44.75;34.25;;;;;11.17;69.35;102267.25;5061787;28;45444;-72
2022/02/10 10:21:08;;;;;;;;;31.25;29.00;;;;;11.67;69.42;102260.00;5053599;28;45465;-71
2022/02/10 10:24:03;;;;;;;;;37.75;31.00;;;;;11.71;68.85;102261.66;5059225;28;45475;-72
2022/02/10 10:57:26;;;;;;;;;33.75;29.75;;;;;12.62;65.95;102273.47;5047071;28;45343;-72
2022/02/10 11:39:17;;;;;;;;;25.25;22.50;;;;;13.52;63.83;102239.22;5003865;28;45932;-71
2022/02/10 12:39:33;;;;;;;;;14.75;11.50;;;;;14.09;60.27;102158.03;5053304;28;45439;-71
2022/02/10 13:23:59;;;;;;;;;10.75;9.00;;;;;13.02;64.90;102119.31;5044785;28;45844;-72
2022/02/10 14:15:50;;;;;;;;;13.75;11.00;;;;;12.15;69.51;102098.97;5013578;28;45762;-72
2022/02/10 14:28:06;;;;;;;;;15.00;11.75;;;;;12.18;69.71;102093.63;5013412;28;45604;-72
2022/02/10 14:30:33;;;;;;;;;16.67;14.00;;;;;12.21;69.67;102087.41;5013243;28;53430;-72
2022/02/10 14:32:59;;;;;;;;;20.75;15.25;;;;;12.24;69.40;102090.81;5011692;28;45577;-72
2022/02/10 14:35:31;;;;;;;;;16.50;14.75;;;;;12.20;69.49;102085.69;5012856;28;45409;-72
2022/02/10 15:45:49;;;;;;;;;14.00;12.50;;;;;12.33;68.17;102050.16;4994021;28;45534;-69
2022/02/10 16:11:00;;;;;;;;;19.25;16.25;;;;;11.96;66.62;102045.94;4998406;28;45543;-73
2022/02/10 16:14:50;;;;;;;;;10.75;10.50;;;;;11.97;66.69;102047.66;5026987;28;45390;-73
2022/02/10 16:19:14;;;;;;;;;23.25;14.00;;;;;12.03;67.04;102046.63;5069454;28;45549;-73
2022/02/10 16:21:43;;;;;;;;;17.75;15.00;;;;;12.06;67.06;102041.28;5055903;27;46938;-73
2022/02/10 16:24:18;;;;;;;;;17.75;13.25;;;;;12.07;66.95;102037.75;5053717;28;46119;-75
2022/02/10 16:26:58;;;;;;;;;16.75;12.00;;;;;12.11;67.10;102039.38;5056848;28;45641;-74
2022/02/10 16:29:26;;;;;;;;;16.50;14.25;;;;;12.11;66.89;102023.59;5054750;28;45516;-74
2022/02/10 16:31:52;;;;;;;;;15.00;14.50;;;;;12.10;67.05;102028.88;5053569;28;46227;-73
2022/02/10 16:34:18;;;;;;;;;14.00;13.75;;;;;12.15;67.29;102034.88;5058592;28;45510;-74
2022/02/10 16:36:43;;;;;;;;;14.50;12.25;;;;;12.13;67.25;102027.03;5059687;27;45388;-74
2022/02/10 16:39:09;;;;;;;;;17.50;15.50;;;;;12.13;67.31;102032.28;5055201;28;45566;-74
2022/02/10 16:41:35;;;;;;;;;17.25;13.75;;;;;12.13;67.42;102028.78;5055234;28;45502;-74
2022/02/10 16:44:00;;;;;;;;;16.00;15.50;;;;;12.11;66.70;102028.84;5056176;28;45724;-74
2022/02/10 16:46:26;;;;;;;;;15.00;12.50;;;;;12.12;66.94;102027.06;5054037;28;45535;-74
2022/02/10 16:48:51;;;;;;;;;17.50;13.75;;;;;12.07;66.61;102027.22;5055105;28;45509;-74
2022/02/10 16:51:19;;;;;;;;;19.25;15.00;;;;;12.02;66.31;102024.69;5054883;28;46135;-74
2022/02/10 16:53:50;;;;;;;;;13.75;11.00;;;;;11.99;66.66;102030.03;5055168;28;45368;-74
2022/02/10 16:56:21;;;;;;;;;19.75;11.00;;;;;11.97;66.62;102038.91;5054638;28;45456;-74
2022/02/10 16:59:25;;;;;;;;;14.50;11.00;;;;;11.97;66.39;102044.19;5057031;28;45567;-74
2022/02/10 17:27:39;;;;;;;;;15.75;10.50;;;;;11.83;66.37;102055.06;5013760;28;45592;-74
2022/02/10 17:32:52;;;;;;;;;10.75;10.50;;;;;11.83;67.26;102064.75;5014615;28;46321;-74
2022/02/10 17:35:36;;;;;;;;;14.75;11.25;;;;;11.80;68.07;102070.94;5014623;28;45750;-74
2022/02/10 17:46:19;;;;;;;;;14.50;12.25;;;;;11.58;69.88;102069.75;5010009;28;46028;-73
2022/02/10 17:54:11;;;;;;;;;14.00;12.00;;;;;11.49;70.77;102111.25;5013894;28;45548;-73
2022/02/10 17:56:37;;;;;;;;;17.75;12.00;;;;;11.44;70.70;102109.63;5011304;28;45579;-73
2022/02/10 17:59:05;;;;;;;;;11.25;10.00;;;;;11.35;71.97;102123.84;5025779;28;45534;-73
2022/02/10 18:01:31;;;;;;;;;7.00;7.00;;;;;11.17;72.73;102133.06;5055602;28;45380;-73
2022/02/10 18:03:56;;;;;;;;;6.50;5.25;;;;;11.00;72.24;102147.47;5054124;28;45577;-72
2022/02/10 18:06:24;;;;;;;;;7.75;4.00;;;;;10.81;73.00;102153.16;5051648;28;45416;-72
2022/02/10 18:11:58;;;;;;;;;9.00;6.00;;;;;10.57;72.91;102161.53;5051813;28;45743;-73
2022/02/10 18:14:23;;;;;;;;;10.00;7.75;;;;;10.41;73.54;102169.72;5051937;28;45473;-71
2022/02/10 18:17:38;;;;;;;;;6.50;4.00;;;;;10.33;74.25;102170.75;5056342;28;45549;-72
2022/02/10 18:19:45;;;;;;;;;9.50;9.50;;;;;10.25;73.66;102185.81;5051758;28;45803;-72
2022/02/10 18:22:35;;;;;;;;;8.00;8.00;;;;;10.15;74.05;102191.19;5049837;28;45907;-72
2022/02/10 18:27:54;;;;;;;;;5.50;5.50;;;;;9.99;74.93;102195.00;5049758;28;46215;-72
2022/02/10 18:30:21;;;;;;;;;7.00;7.00;;;;;9.92;74.72;102198.63;5049868;28;45853;-73
2022/02/10 19:08:11;;;;;;;;;9.75;9.75;;;;;9.56;76.18;102252.56;4987951;28;45613;-71
2022/02/10 19:10:44;;;;;;;;;12.75;8.00;;;;;9.52;76.54;102261.38;4988169;28;45933;-71
2022/02/10 19:13:10;;;;;;;;;9.00;8.00;;;;;9.50;76.76;102261.41;4988871;28;45832;-71
2022/02/10 19:15:35;;;;;;;;;6.50;5.00;;;;;9.47;75.83;102279.81;4989344;28;45583;-71
2022/02/10 19:18:04;;;;;;;;;5.50;5.00;;;;;9.42;75.47;102284.25;4989154;28;45603;-71
2022/02/10 19:20:32;;;;;;;;;3.00;3.00;;;;;9.33;75.25;102282.59;5009132;28;45824;-71
2022/02/10 19:22:58;;;;;;;;;6.00;4.00;;;;;9.25;75.50;102281.84;5053601;27;45357;-71
2022/02/10 19:25:23;;;;;;;;;4.25;4.25;;;;;9.22;75.58;102300.25;5054100;28;45396;-71
2022/02/10 19:27:49;;;;;;;;;6.00;3.50;;;;;9.18;75.61;102293.28;5057663;28;46726;-72
2022/02/10 19:30:18;;;;;;;;;3.75;2.00;;;;;9.13;75.96;102289.84;5062390;27;45466;-71
2022/02/10 19:32:57;;;;;;;;;2.50;1.00;;;;;9.09;75.77;102302.16;5051446;28;45422;-72
2022/02/10 19:35:25;;;;;;;;;2.00;2.00;;;;;9.05;76.19;102302.19;5031415;28;45439;-72
2022/02/10 19:37:56;;;;;;;;;2.00;1.00;;;;;8.99;75.98;102307.53;5063581;28;46243;-72
2022/02/10 19:40:23;;;;;;;;;2.00;2.00;;;;;8.93;75.79;102297.06;5055403;28;45499;-72
2022/02/10 19:42:50;;;;;;;;;1.25;1.25;;;;;8.89;76.10;102306.75;5052969;28;45714;-72
2022/02/10 19:45:15;;;;;;;;;3.00;3.00;;;;;8.89;76.55;102306.75;5054735;28;45417;-71
2022/02/10 19:47:42;;;;;;;;;3.25;3.00;;;;;8.88;76.46;102315.50;5054799;28;46010;-72
2022/02/10 19:50:15;;;;;;;;;2.00;2.00;;;;;8.86;76.57;102314.63;5053992;27;45384;-71
2022/02/10 19:52:44;;;;;;;;;83.75;63.00;;;;;8.84;76.81;102325.16;5053685;28;45544;-71
2022/02/10 19:55:18;;;;;;;;;5.00;2.00;;;;;8.82;76.72;102321.69;5053393;28;45752;-70
2022/02/10 19:57:45;;;;;;;;;2.00;2.00;;;;;8.77;76.75;102326.09;5050400;28;46471;-70
2022/02/10 20:00:17;;;;;;;;;2.00;2.00;;;;;8.73;76.48;102329.63;5043001;28;45419;-70
2022/02/10 20:02:42;;;;;;;;;6.00;3.00;;;;;8.70;77.24;102331.41;5056921;28;45599;-70
2022/02/10 20:05:08;;;;;;;;;4.50;3.75;;;;;8.66;77.45;102329.69;5052911;28;45429;-70
2022/02/10 20:07:37;;;;;;;;;8.00;2.75;;;;;8.68;77.76;102325.31;5052204;28;45744;-71
2022/02/10 20:10:06;;;;;;;;;2.50;2.25;;;;;8.69;77.72;102337.53;5055161;28;45949;-71
2022/02/10 20:12:33;;;;;;;;;2.00;2.00;;;;;8.67;77.28;102332.31;5044713;28;45441;-70
2022/02/10 20:14:58;;;;;;;;;3.25;1.25;;;;;8.69;77.12;102333.16;5051684;28;45794;-69
2022/02/10 20:17:23;;;;;;;;;3.00;2.25;;;;;8.66;77.13;102327.94;5049983;28;45998;-69
2022/02/10 20:19:49;;;;;;;;;3.75;3.00;;;;;8.66;77.66;102335.81;5054630;28;45481;-70
2022/02/10 20:22:15;;;;;;;;;3.00;3.00;;;;;8.67;77.48;102347.19;5053248;28;45467;-70
2022/02/10 20:24:41;;;;;;;;;4.00;3.00;;;;;8.66;76.86;102351.53;5051130;28;45891;-70
2022/02/10 20:27:06;;;;;;;;;2.00;2.00;;;;;8.63;77.19;102352.44;5050570;28;46907;-69
2022/02/10 20:29:32;;;;;;;;;4.50;3.00;;;;;8.62;77.74;102355.09;5050949;28;45612;-70
2022/02/10 20:31:57;;;;;;;;;6.75;5.00;;;;;8.57;77.17;102349.00;5054160;28;45463;-69
2022/02/10 20:34:23;;;;;;;;;2.00;1.00;;;;;8.55;77.09;102349.00;5050271;28;45423;-70
2022/02/10 20:36:49;;;;;;;;;4.00;3.00;;;;;8.53;77.03;102360.41;5053926;28;47272;-70
2022/02/10 20:39:21;;;;;;;;;2.25;2.00;;;;;8.50;77.22;102361.28;5051828;28;45659;-70
2022/02/10 20:41:50;;;;;;;;;2.75;2.75;;;;;8.45;77.38;102357.81;5051274;28;45821;-70
2022/02/10 20:44:16;;;;;;;;;2.00;1.75;;;;;8.42;77.41;102355.25;5052922;28;45484;-70
2022/02/10 20:46:43;;;;;;;;;2.00;2.00;;;;;8.41;77.72;102361.38;5053988;28;46887;-70
2022/02/10 20:49:16;;;;;;;;;4.75;4.75;;;;;8.42;77.24;102363.09;5050346;28;45432;-70
2022/02/10 20:51:43;;;;;;;;;2.75;2.75;;;;;8.40;77.29;102362.22;5050700;28;45485;-70
2022/02/10 20:54:08;;;;;;;;;2.50;2.00;;;;;8.38;77.33;102343.03;5050446;28;45640;-70
2022/02/10 20:56:34;;;;;;;;;7.75;5.00;;;;;8.38;77.47;102356.13;5052287;28;47466;-71
2022/02/10 20:59:07;;;;;;;;;6.50;2.75;;;;;8.40;77.79;102358.75;5053093;28;45431;-71
2022/02/10 21:01:32;;;;;;;;;3.00;3.00;;;;;8.39;77.96;102376.22;5052307;28;45503;-71
2022/02/10 21:04:00;;;;;;;;;5.25;3.00;;;;;8.37;78.21;102372.75;5049872;28;45462;-71
2022/02/10 21:06:46;;;;;;;;;6.50;3.00;;;;;8.33;78.30;102382.34;5050125;28;46294;-70
2022/02/10 21:09:20;;;;;;;;;4.50;3.50;;;;;8.29;77.99;102387.59;5052284;28;46036;-71
2022/02/10 21:11:45;;;;;;;;;5.75;2.25;;;;;8.29;77.80;102392.84;5040115;28;45486;-70
2022/02/10 21:14:18;;;;;;;;;2.00;1.00;;;;;8.27;77.90;102387.63;5053033;28;45429;-71
2022/02/10 21:16:43;;;;;;;;;1.00;1.00;;;;;8.27;77.64;102381.53;5062606;28;46255;-71
2022/02/10 21:19:11;;;;;;;;;1.00;1.00;;;;;8.25;77.28;102388.53;5055657;28;45490;-72
2022/02/10 21:21:36;;;;;;;;;3.00;3.00;;;;;8.26;77.32;102395.50;5050512;28;46023;-72
2022/02/10 21:24:08;;;;;;;;;6.25;2.00;;;;;8.23;77.36;102395.50;5051735;28;45718;-72
2022/02/10 21:26:43;;;;;;;;;2.00;1.50;;;;;8.21;77.17;102406.00;5062927;28;46272;-72
2022/02/10 21:29:08;;;;;;;;;2.50;2.50;;;;;8.17;77.50;102385.06;5067550;28;46023;-72
2022/02/10 21:31:42;;;;;;;;;3.75;3.00;;;;;8.19;77.60;102401.63;5055593;28;45608;-72
2022/02/10 21:34:22;;;;;;;;;2.75;2.00;;;;;8.18;78.06;102390.28;5052218;28;45539;-72
2022/02/10 21:37:07;;;;;;;;;3.75;2.00;;;;;8.16;78.29;102396.44;5051191;28;46056;-72
2022/02/10 21:39:48;;;;;;;;;3.50;3.50;;;;;8.16;78.32;102393.81;5054989;28;45468;-72
2022/02/10 22:04:41;;;;;;;;;6.25;5.00;;;;;8.00;78.88;102404.38;5007103;28;45600;-72
2022/02/10 22:20:06;;;;;;;;;5.50;5.25;;;;;7.79;78.52;102402.75;5047275;28;45458;-72
2022/02/10 22:22:38;;;;;;;;;7.00;5.00;;;;;7.77;78.65;102412.34;5052708;28;45999;-72
2022/02/10 22:25:09;;;;;;;;;2.50;2.50;;;;;7.79;78.88;102422.81;5050967;28;45429;-72
2022/02/10 22:27:39;;;;;;;;;3.00;3.00;;;;;7.79;78.88;102428.91;5054313;28;48317;-72
2022/02/10 22:30:14;;;;;;;;;6.75;5.00;;;;;7.82;78.67;102425.41;5053121;28;47187;-72
2022/02/10 22:32:58;;;;;;;;;5.50;4.00;;;;;7.83;78.67;102430.66;5053659;28;45516;-72
2022/02/10 22:35:25;;;;;;;;;6.50;6.00;;;;;7.84;78.97;102427.16;5036922;28;45527;-72
2022/02/10 22:37:53;;;;;;;;;3.00;3.00;;;;;7.84;78.26;102419.31;5051197;28;45452;-72
2022/02/10 22:40:38;;;;;;;;;3.00;3.00;;;;;7.83;78.90;102429.78;5052717;28;45423;-72
2022/02/10 22:43:03;;;;;;;;;6.75;5.00;;;;;7.80;78.70;102432.41;5056174;28;45712;-72
2022/02/10 22:45:29;;;;;;;;;5.25;5.00;;;;;7.73;78.59;102428.09;5057941;28;45456;-72
2022/02/10 22:47:54;;;;;;;;;11.00;5.00;;;;;7.70;78.58;102449.03;5058468;28;45824;-72
2022/02/10 22:50:19;;;;;;;;;3.00;3.00;;;;;7.62;78.90;102445.53;5053737;28;58067;-72
2022/02/10 22:52:45;;;;;;;;;6.00;5.50;;;;;7.53;78.89;102436.88;5059969;28;45283;-72
2022/02/10 22:55:10;;;;;;;;;5.50;5.00;;;;;7.53;78.73;102443.84;5057839;28;45270;-72
2022/02/10 22:57:36;;;;;;;;;6.00;6.00;;;;;7.50;78.67;102439.47;5057735;28;45398;-72
2022/02/10 23:00:06;;;;;;;;;3.00;3.00;;;;;7.43;78.83;102445.63;5057084;28;46367;-71
2022/02/10 23:02:32;;;;;;;;;5.00;4.50;;;;;7.38;78.93;102442.13;5051615;28;45507;-72
2022/02/10 23:04:57;;;;;;;;;9.25;5.00;;;;;7.30;78.47;102438.66;5054721;28;48103;-72
2022/02/10 23:07:22;;;;;;;;;3.00;3.00;;;;;7.27;78.48;102449.13;5054199;28;45312;-72
2022/02/10 23:09:53;;;;;;;;;5.25;5.00;;;;;7.22;78.57;102438.69;5053102;28;46026;-72
2022/02/10 23:12:18;;;;;;;;;5.50;5.00;;;;;7.18;79.26;102446.53;5052630;28;45994;-72
2022/02/10 23:14:44;;;;;;;;;6.00;5.00;;;;;7.16;78.91;102450.91;5051961;28;45270;-72
2022/02/10 23:17:09;;;;;;;;;10.25;7.50;;;;;7.13;79.18;102453.50;5053239;28;45262;-72
2022/02/10 23:19:38;;;;;;;;;6.00;4.00;;;;;7.14;79.17;102461.34;5054328;28;46220;-72
2022/02/10 23:22:04;;;;;;;;;7.50;6.75;;;;;7.15;79.64;102470.97;5053237;28;45230;-72
2022/02/10 23:24:29;;;;;;;;;7.00;5.75;;;;;7.15;80.00;102472.66;5052675;28;45534;-72
2022/02/10 23:26:54;;;;;;;;;6.00;5.00;;;;;7.15;79.53;102480.50;5052800;28;45247;-72
2022/02/10 23:29:20;;;;;;;;;8.00;8.00;;;;;7.11;79.76;102484.91;5053085;28;45671;-71
2022/02/10 23:31:45;;;;;;;;;6.25;6.25;;;;;7.06;79.70;102494.47;5054869;28;45412;-72
2022/02/10 23:34:10;;;;;;;;;5.25;5.25;;;;;7.01;79.61;102491.00;5053529;28;47700;-72
2022/02/10 23:44:20;;;;;;;;;5.25;5.00;;;;;6.78;79.95;102502.28;5054860;28;45774;-73
2022/02/10 23:46:46;;;;;;;;;10.25;4.00;;;;;6.73;79.52;102501.44;5054736;28;45536;-72
2022/02/10 23:49:15;;;;;;;;;8.00;8.00;;;;;6.66;79.89;102504.03;5051969;28;46543;-73
2022/02/10 23:51:51;;;;;;;;;7.00;5.50;;;;;6.62;79.98;102512.72;5053178;28;46012;-73
2022/02/10 23:54:17;;;;;;;;;6.00;5.50;;;;;6.57;79.52;102510.09;5051565;28;45420;-73
2022/02/10 23:56:53;;;;;;;;;11.00;7.00;;;;;6.53;80.31;102511.00;5051896;28;45425;-73
